Time;durP1;ratioP1;P1;durP2;ratioP2;P2;SDS_P1;SDS_P2;PMS_P1;PMS_P2;Temp;Humidity;BMP_temperature;BMP_pressure;BME280_temperature;BME280_humidity;BME280_pressure;Samples;Min_cycle;Max_cycle;Signal;HPM_P1;HPM_P2
2022/10/27 00:00:22;;;;;;;14.40;2.88;;;;;;;11.93;100.00;99830.72;5025598;28;20033;-79
2022/10/27 00:02:47;;;;;;;12.02;2.70;;;;;;;11.86;100.00;99817.25;5025635;28;20514;-78
2022/10/27 00:05:13;;;;;;;14.27;3.22;;;;;;;11.95;100.00;99832.16;4995068;28;20395;-80
2022/10/27 00:07:41;;;;;;;18.25;4.00;;;;;;;11.92;100.00;99829.88;5022017;28;20491;-79
2022/10/27 00:10:09;;;;;;;17.27;3.03;;;;;;;11.85;100.00;99837.94;5027990;28;20021;-79
2022/10/27 00:12:38;;;;;;;12.10;2.25;;;;;;;11.92;100.00;99826.38;5008142;28;20037;-80
2022/10/27 00:15:03;;;;;;;16.38;3.15;;;;;;;12.00;100.00;99826.16;4993441;28;20116;-79
2022/10/27 00:17:29;;;;;;;12.77;2.33;;;;;;;12.04;100.00;99846.25;5024424;28;20108;-80
2022/10/27 00:19:55;;;;;;;26.35;3.40;;;;;;;12.02;100.00;99829.47;5026499;28;20044;-79
2022/10/27 00:22:21;;;;;;;11.00;3.10;;;;;;;12.07;100.00;99806.25;4987994;28;20048;-80
2022/10/27 00:24:46;;;;;;;11.50;2.95;;;;;;;12.18;100.00;99828.22;5025759;28;20036;-80
2022/10/27 00:27:12;;;;;;;14.98;2.20;;;;;;;12.16;100.00;99831.13;5009630;28;20036;-79
2022/10/27 00:29:38;;;;;;;9.35;2.80;;;;;;;12.23;100.00;99823.84;5027798;28;20040;-79
2022/10/27 00:32:04;;;;;;;21.30;4.15;;;;;;;12.27;100.00;99832.34;4986981;28;20395;-79
2022/10/27 00:34:31;;;;;;;19.63;3.78;;;;;;;12.30;100.00;99834.63;4988499;28;20407;-79
2022/10/27 00:36:57;;;;;;;16.42;2.67;;;;;;;12.24;100.00;99827.38;4986490;28;20265;-79
2022/10/27 00:39:25;;;;;;;19.15;3.08;;;;;;;12.32;100.00;99817.19;4989565;28;20040;-79
2022/10/27 00:41:51;;;;;;;15.60;2.53;;;;;;;12.41;100.00;99822.34;4993295;28;20029;-80
2022/10/27 00:44:37;;;;;;;13.35;3.35;;;;;;;12.39;100.00;99827.97;5007543;28;20048;-79
2022/10/27 00:47:09;;;;;;;10.95;2.28;;;;;;;12.22;100.00;99800.63;5021549;28;20030;-80
2022/10/27 00:49:43;;;;;;;15.90;3.20;;;;;;;12.38;100.00;99831.69;5041001;28;20041;-81
2022/10/27 00:52:15;;;;;;;19.70;2.97;;;;;;;12.36;100.00;99827.56;5022073;28;20072;-80
2022/10/27 00:54:41;;;;;;;16.92;2.35;;;;;;;12.24;100.00;99832.75;5025692;28;20026;-80
2022/10/27 00:57:07;;;;;;;16.42;2.85;;;;;;;12.29;100.00;99822.19;5022383;28;20120;-80
2022/10/27 00:59:35;;;;;;;16.70;3.28;;;;;;;12.31;100.00;99823.63;5025938;28;20030;-80
2022/10/27 01:02:01;;;;;;;18.90;3.50;;;;;;;12.20;100.00;99823.44;5024175;28;20072;-79
2022/10/27 01:04:32;;;;;;;15.50;2.88;;;;;;;12.21;100.00;99817.03;4991327;28;20033;-79
2022/10/27 01:06:59;;;;;;;17.10;2.10;;;;;;;12.20;100.00;99812.66;5024977;28;20088;-81
2022/10/27 01:09:25;;;;;;;12.70;2.40;;;;;;;12.22;100.00;99821.34;5025423;28;20036;-80
2022/10/27 01:11:50;;;;;;;19.20;2.75;;;;;;;12.10;100.00;99818.50;5006124;28;20053;-80
2022/10/27 01:14:16;;;;;;;20.63;2.72;;;;;;;11.85;100.00;99811.00;5026677;28;20041;-79
2022/10/27 01:16:48;;;;;;;19.05;3.05;;;;;;;11.76;100.00;99819.50;5002170;28;20034;-79
2022/10/27 01:19:36;;;;;;;17.70;3.05;;;;;;;11.75;100.00;99815.97;5004289;28;20034;-79
2022/10/27 01:22:31;;;;;;;23.42;3.00;;;;;;;11.79;100.00;99814.50;5025798;28;20030;-80
2022/10/27 01:25:03;;;;;;;4.32;1.33;;;;;;;11.94;100.00;99816.22;4994041;28;20029;-80
2022/10/27 01:27:50;;;;;;;14.75;3.22;;;;;;;12.08;100.00;99809.78;5011989;28;20036;-80
2022/10/27 01:30:20;;;;;;;17.48;3.38;;;;;;;12.06;100.00;99807.28;5012651;28;20033;-80
2022/10/27 01:32:55;;;;;;;16.42;3.03;;;;;;;12.00;100.00;99797.34;4990519;28;20080;-81
2022/10/27 01:35:46;;;;;;;13.02;3.00;;;;;;;12.02;100.00;99797.16;5014551;28;20063;-79
2022/10/27 01:38:21;;;;;;;16.88;2.22;;;;;;;11.88;100.00;99745.97;5026222;28;20032;-79
2022/10/27 01:41:03;;;;;;;17.70;2.60;;;;;;;12.18;100.00;99771.63;5026421;28;20052;-80
2022/10/27 01:43:30;;;;;;;12.35;2.78;;;;;;;12.18;100.00;99771.63;5030010;28;20112;-81
2022/10/27 01:45:56;;;;;;;16.60;2.60;;;;;;;12.19;100.00;99763.31;5012749;28;20033;-80
2022/10/27 01:48:21;;;;;;;19.95;3.60;;;;;;;12.17;100.00;99768.13;4991954;28;20042;-79
2022/10/27 01:50:47;;;;;;;22.73;3.13;;;;;;;12.15;100.00;99759.41;5028996;28;20116;-80
2022/10/27 01:53:13;;;;;;;14.20;2.60;;;;;;;11.99;100.00;99759.84;4993974;28;20475;-82
2022/10/27 01:56:03;;;;;;;15.13;2.30;;;;;;;11.91;100.00;99752.81;5009295;28;20035;-80
2022/10/27 01:58:50;;;;;;;13.52;3.33;;;;;;;11.96;100.00;99763.78;5028240;28;20033;-80
2022/10/27 02:01:19;;;;;;;16.52;2.72;;;;;;;12.04;100.00;99763.56;5013454;28;20105;-80
2022/10/27 02:04:00;;;;;;;19.83;2.92;;;;;;;12.13;100.00;99766.88;5009405;28;20476;-79
2022/10/27 02:06:40;;;;;;;16.20;3.88;;;;;;;12.14;100.00;99760.44;5026058;28;20029;-80
2022/10/27 02:09:06;;;;;;;17.42;2.47;;;;;;;12.10;100.00;99764.59;5005082;28;20088;-79
2022/10/27 02:11:33;;;;;;;19.42;2.60;;;;;;;12.01;100.00;99773.91;5027654;28;20493;-80
2022/10/27 02:13:58;;;;;;;19.17;3.90;;;;;;;12.03;100.00;99774.53;5012348;28;20036;-79
2022/10/27 02:16:27;;;;;;;13.57;3.00;;;;;;;12.10;100.00;99769.97;5011974;28;20034;-79
2022/10/27 02:18:56;;;;;;;10.35;2.80;;;;;;;12.21;100.00;99765.81;5011513;28;20034;-80
2022/10/27 02:21:23;;;;;;;18.48;3.38;;;;;;;12.40;100.00;99756.00;5007521;28;20162;-79
2022/10/27 02:23:49;;;;;;;21.42;3.40;;;;;;;12.60;100.00;99756.78;5022532;28;20140;-79
2022/10/27 02:26:37;;;;;;;16.52;2.60;;;;;;;12.74;100.00;99758.38;5008308;28;20109;-80
2022/10/27 02:29:05;;;;;;;28.40;3.25;;;;;;;12.70;100.00;99737.44;5033244;28;20498;-80
2022/10/27 02:31:40;;;;;;;14.32;2.92;;;;;;;12.56;100.00;99742.06;5008673;28;20423;-79
2022/10/27 02:34:06;;;;;;;17.08;2.88;;;;;;;12.46;100.00;99731.75;5027136;28;20037;-79
2022/10/27 02:36:32;;;;;;;12.10;2.35;;;;;;;12.20;100.00;99715.63;5009942;28;20472;-81
2022/10/27 02:38:58;;;;;;;16.98;3.72;;;;;;;12.23;100.00;99734.91;5027293;28;20060;-80
2022/10/27 02:41:23;;;;;;;13.02;2.42;;;;;;;12.23;100.00;99729.53;5027294;28;20567;-79
2022/10/27 02:43:49;;;;;;;11.57;2.22;;;;;;;12.26;100.00;99717.50;5028904;28;20029;-80
2022/10/27 02:46:15;;;;;;;13.68;2.85;;;;;;;12.25;100.00;99718.50;5027998;28;20479;-80
2022/10/27 02:48:40;;;;;;;17.55;2.58;;;;;;;12.31;100.00;99715.00;5009199;28;20084;-81
2022/10/27 02:51:06;;;;;;;21.23;3.40;;;;;;;12.29;100.00;99717.88;5024101;28;20447;-80
2022/10/27 02:53:32;;;;;;;15.90;2.83;;;;;;;12.27;100.00;99717.25;5030009;28;20041;-79
2022/10/27 02:55:57;;;;;;;18.95;3.58;;;;;;;12.21;100.00;99711.91;4989513;28;20128;-81
2022/10/27 02:58:23;;;;;;;12.60;2.45;;;;;;;12.09;100.00;99717.09;5023577;28;20025;-80
2022/10/27 03:00:55;;;;;;;17.17;3.33;;;;;;;11.94;100.00;99711.16;5021821;28;20458;-79
2022/10/27 03:03:21;;;;;;;12.43;2.92;;;;;;;11.81;100.00;99693.13;4995107;28;20033;-80
2022/10/27 03:05:47;;;;;;;10.80;2.45;;;;;;;11.83;100.00;99710.72;5027929;28;20033;-80
2022/10/27 03:08:13;;;;;;;16.98;2.80;;;;;;;11.81;100.00;99699.31;4995401;28;20132;-79
2022/10/27 03:10:38;;;;;;;9.70;2.95;;;;;;;11.92;100.00;99702.44;5026580;28;20029;-80
2022/10/27 03:13:04;;;;;;;17.55;2.92;;;;;;;11.91;100.00;99698.09;4993282;28;20474;-81
2022/10/27 03:15:30;;;;;;;19.65;3.60;;;;;;;11.84;100.00;99690.81;5022416;28;20055;-81
2022/10/27 03:17:55;;;;;;;11.95;2.85;;;;;;;11.86;100.00;99693.34;5011161;28;20064;-80
2022/10/27 03:20:21;;;;;;;15.07;3.58;;;;;;;11.87;100.00;99695.00;4993645;28;20030;-80
2022/10/27 03:22:50;;;;;;;15.30;2.60;;;;;;;11.87;100.00;99700.38;5009594;28;20515;-81
2022/10/27 03:25:15;;;;;;;19.27;3.83;;;;;;;11.93;100.00;99694.16;5007035;28;20165;-79
2022/10/27 03:27:42;;;;;;;15.15;3.00;;;;;;;12.05;100.00;99703.25;4996110;28;20103;-81
2022/10/27 03:30:10;;;;;;;16.95;2.88;;;;;;;12.06;100.00;99671.72;5007946;28;20068;-81
2022/10/27 03:32:36;;;;;;;16.98;3.50;;;;;;;11.86;100.00;99636.78;4986262;28;20038;-80
2022/10/27 03:35:02;;;;;;;19.73;4.10;;;;;;;12.17;100.00;99678.31;5007906;28;20064;-81
2022/10/27 03:37:28;;;;;;;18.15;3.83;;;;;;;12.25;100.00;99684.34;5026647;28;20112;-80
2022/10/27 03:39:53;;;;;;;16.27;3.13;;;;;;;12.37;100.00;99672.88;4991142;28;20060;-79
2022/10/27 03:42:19;;;;;;;13.05;2.05;;;;;;;12.45;100.00;99667.25;5030564;28;20037;-80
2022/10/27 03:44:45;;;;;;;9.93;2.20;;;;;;;12.57;100.00;99673.63;5024231;28;20461;-80
2022/10/27 03:47:10;;;;;;;8.20;2.13;;;;;;;12.61;100.00;99668.59;5003574;28;20031;-79
2022/10/27 03:49:36;;;;;;;9.45;2.33;;;;;;;12.62;100.00;99664.84;5021357;28;20033;-80
2022/10/27 03:52:01;;;;;;;5.95;1.58;;;;;;;12.67;100.00;99665.84;5026746;28;20021;-80
2022/10/27 03:54:31;;;;;;;6.32;1.88;;;;;;;12.72;100.00;99666.03;5021773;28;20045;-81
2022/10/27 03:56:57;;;;;;;8.98;2.08;;;;;;;12.74;100.00;99666.66;5040423;28;20029;-80
2022/10/27 03:59:23;;;;;;;9.05;1.50;;;;;;;12.68;100.00;99664.84;4989932;28;20052;-79
2022/10/27 04:01:49;;;;;;;9.52;1.48;;;;;;;12.73;100.00;99662.31;5027467;28;20037;-80
2022/10/27 04:04:14;;;;;;;4.13;1.23;;;;;;;12.69;100.00;99661.09;4993725;28;20065;-79
2022/10/27 04:06:40;;;;;;;6.30;1.27;;;;;;;12.67;100.00;99665.03;4996588;28;20501;-79
2022/10/27 04:09:06;;;;;;;3.22;1.20;;;;;;;12.71;100.00;99672.50;5011183;28;20036;-80
2022/10/27 04:11:31;;;;;;;5.25;0.95;;;;;;;12.69;100.00;99660.25;5028638;28;20215;-79
2022/10/27 04:13:58;;;;;;;7.32;1.38;;;;;;;12.61;100.00;99647.84;5006230;28;20491;-80
2022/10/27 04:16:24;;;;;;;2.22;1.48;;;;;;;12.57;100.00;99646.66;5009489;28;20049;-80
2022/10/27 04:18:49;;;;;;;4.57;1.27;;;;;;;12.62;100.00;99659.47;5023933;28;20283;-79
2022/10/27 04:21:15;;;;;;;4.78;0.98;;;;;;;12.60;100.00;99651.59;5007827;28;20414;-79
2022/10/27 04:23:41;;;;;;;3.50;1.02;;;;;;;12.53;100.00;99643.53;4991972;28;20072;-80
2022/10/27 04:26:07;;;;;;;6.53;1.30;;;;;;;12.60;100.00;99650.78;5004601;28;20406;-80
2022/10/27 04:28:33;;;;;;;3.75;1.20;;;;;;;12.62;100.00;99649.53;5022609;28;20037;-80
2022/10/27 04:30:59;;;;;;;3.58;1.17;;;;;;;12.57;100.00;99629.63;5009341;28;20037;-80
2022/10/27 04:33:24;;;;;;;5.53;1.48;;;;;;;12.62;100.00;99644.13;5021405;28;20132;-79
2022/10/27 04:35:50;;;;;;;6.53;1.42;;;;;;;12.63;100.00;99639.56;5025504;28;20423;-78
2022/10/27 04:38:15;;;;;;;6.85;1.55;;;;;;;12.59;100.00;99624.84;4987516;28;20045;-81
2022/10/27 04:40:41;;;;;;;6.53;1.27;;;;;;;12.61;100.00;99628.16;5027090;28;20392;-81
2022/10/27 04:43:07;;;;;;;6.55;1.40;;;;;;;12.59;100.00;99617.56;5003943;28;20030;-82
2022/10/27 04:45:33;;;;;;;5.30;1.25;;;;;;;12.66;100.00;99618.38;4993100;28;20041;-80
2022/10/27 04:47:59;;;;;;;5.97;1.30;;;;;;;12.69;100.00;99617.09;5025655;28;20792;-80
2022/10/27 04:50:25;;;;;;;5.72;1.30;;;;;;;12.75;100.00;99609.00;5006029;28;20260;-80
2022/10/27 04:52:56;;;;;;;3.08;0.85;;;;;;;12.83;100.00;99609.75;4990803;28;20037;-80
2022/10/27 04:55:22;;;;;;;7.03;1.75;;;;;;;12.74;100.00;99593.84;5025801;28;20036;-80
2022/10/27 04:57:48;;;;;;;6.97;1.48;;;;;;;12.78;100.00;99610.44;5023333;28;20026;-80
2022/10/27 05:00:14;;;;;;;5.70;1.48;;;;;;;12.78;100.00;99594.25;5026522;28;20041;-78
2022/10/27 05:02:39;;;;;;;6.07;1.65;;;;;;;12.74;100.00;99591.13;5012815;28;20025;-79
2022/10/27 05:05:05;;;;;;;4.90;1.15;;;;;;;12.76;100.00;99602.53;5027003;28;20029;-79
2022/10/27 05:07:31;;;;;;;9.18;1.52;;;;;;;12.86;100.00;99610.16;5010402;28;20072;-80
2022/10/27 05:09:57;;;;;;;6.05;2.03;;;;;;;12.92;100.00;99597.66;5029848;28;20460;-79
2022/10/27 05:12:23;;;;;;;3.60;1.35;;;;;;;12.93;100.00;99589.31;5010626;28;20045;-79
2022/10/27 05:14:48;;;;;;;7.57;2.00;;;;;;;13.03;100.00;99591.53;5030741;28;20083;-79
2022/10/27 05:17:14;;;;;;;4.07;1.48;;;;;;;12.95;100.00;99575.63;4999256;28;20613;-80
2022/10/27 05:19:39;;;;;;;4.50;1.52;;;;;;;13.06;100.00;99590.28;5030564;28;20175;-79
2022/10/27 05:22:05;;;;;;;5.28;1.60;;;;;;;13.11;100.00;99593.13;4995388;28;20033;-79
2022/10/27 05:24:31;;;;;;;10.32;1.63;;;;;;;13.12;100.00;99592.09;5012734;28;20384;-79
2022/10/27 05:26:56;;;;;;;3.50;1.10;;;;;;;13.09;100.00;99579.84;5019350;28;20057;-80
2022/10/27 05:29:22;;;;;;;5.47;1.58;;;;;;;13.14;100.00;99592.69;5026628;28;20033;-79
2022/10/27 05:31:47;;;;;;;4.32;1.25;;;;;;;13.13;100.00;99580.25;4996617;28;20419;-79
2022/10/27 05:34:13;;;;;;;7.53;1.48;;;;;;;13.11;100.00;99572.38;5028389;28;20391;-79
2022/10/27 05:36:39;;;;;;;6.18;1.70;;;;;;;13.13;100.00;99575.69;5027818;28;20030;-80
2022/10/27 05:39:04;;;;;;;4.85;1.52;;;;;;;13.15;100.00;99587.09;5028312;28;20037;-79
2022/10/27 05:41:30;;;;;;;6.93;1.58;;;;;;;13.13;100.00;99582.97;4993618;28;20038;-79
2022/10/27 05:43:55;;;;;;;5.07;1.35;;;;;;;13.12;100.00;99575.88;5024344;28;20511;-79
2022/10/27 05:46:21;;;;;;;5.88;1.58;;;;;;;13.16;100.00;99572.53;5007564;28;20129;-80
2022/10/27 05:48:47;;;;;;;8.80;1.70;;;;;;;13.18;100.00;99566.94;4991717;28;20048;-80
2022/10/27 05:51:13;;;;;;;5.97;1.50;;;;;;;13.24;100.00;99574.13;4994546;28;20029;-79
2022/10/27 05:53:38;;;;;;;5.68;1.38;;;;;;;13.25;100.00;99561.44;4994781;28;20040;-79
2022/10/27 05:56:04;;;;;;;7.47;1.73;;;;;;;13.30;100.00;99570.56;5024790;28;20045;-80
2022/10/27 05:58:30;;;;;;;8.20;1.70;;;;;;;13.32;100.00;99573.06;4989751;28;20395;-79
2022/10/27 06:00:59;;;;;;;6.95;1.30;;;;;;;13.29;100.00;99555.41;5020368;28;21517;-79
2022/10/27 06:03:25;;;;;;;4.72;1.30;;;;;;;13.39;100.00;99563.03;5023589;28;20045;-79
2022/10/27 06:05:51;;;;;;;5.65;1.08;;;;;;;13.40;100.00;99553.84;5027604;28;20033;-79
2022/10/27 06:08:18;;;;;;;8.13;1.75;;;;;;;13.43;100.00;99555.28;4994628;28;20033;-79
2022/10/27 06:10:47;;;;;;;5.97;1.20;;;;;;;13.44;100.00;99556.91;5009233;28;20026;-79
2022/10/27 06:13:13;;;;;;;4.97;1.50;;;;;;;13.49;100.00;99555.19;5021238;28;20092;-79
2022/10/27 06:15:39;;;;;;;4.05;1.30;;;;;;;13.50;100.00;99548.75;4992231;28;20044;-79
2022/10/27 06:18:05;;;;;;;7.60;1.13;;;;;;;13.54;100.00;99555.34;4996120;28;20033;-79
2022/10/27 06:20:31;;;;;;;3.30;1.08;;;;;;;13.45;100.00;99540.50;5013567;28;20052;-80
2022/10/27 06:22:57;;;;;;;3.95;1.27;;;;;;;13.55;100.00;99546.22;5012193;28;20033;-79
2022/10/27 06:25:23;;;;;;;4.43;1.30;;;;;;;13.54;100.00;99547.25;5012159;28;20562;-79
2022/10/27 06:27:49;;;;;;;5.38;1.00;;;;;;;13.45;100.00;99529.72;4995484;28;20036;-80
2022/10/27 06:30:14;;;;;;;7.20;1.42;;;;;;;13.53;100.00;99551.00;4995199;28;20423;-79
2022/10/27 06:32:43;;;;;;;4.68;1.00;;;;;;;13.47;100.00;99542.97;5010924;28;20399;-79
2022/10/27 06:35:09;;;;;;;4.63;1.25;;;;;;;13.49;100.00;99548.97;5013722;28;20030;-78
2022/10/27 06:37:39;;;;;;;4.55;1.20;;;;;;;13.44;100.00;99546.13;5013013;28;20518;-79
2022/10/27 06:40:08;;;;;;;7.88;1.15;;;;;;;13.46;100.00;99547.56;5007307;28;20037;-79
2022/10/27 06:42:35;;;;;;;2.97;1.10;;;;;;;13.44;100.00;99538.84;5025741;28;20030;-79
2022/10/27 06:45:04;;;;;;;6.32;1.30;;;;;;;13.36;100.00;99531.03;5011964;28;20140;-79
2022/10/27 06:47:30;;;;;;;3.53;1.48;;;;;;;13.45;100.00;99539.69;5023572;28;20064;-79
2022/10/27 06:49:56;;;;;;;5.68;1.30;;;;;;;13.44;100.00;99536.13;5023383;28;20021;-80
2022/10/27 06:52:22;;;;;;;9.48;1.52;;;;;;;13.44;100.00;99533.44;5025878;28;20021;-81
2022/10/27 06:54:47;;;;;;;3.80;1.23;;;;;;;13.46;100.00;99541.34;5010778;28;20068;-79
2022/10/27 06:57:13;;;;;;;5.43;1.40;;;;;;;13.46;100.00;99541.34;5018057;28;20116;-78
2022/10/27 06:59:39;;;;;;;5.60;1.40;;;;;;;13.47;100.00;99553.78;5006511;28;20136;-79
2022/10/27 07:02:05;;;;;;;7.47;1.40;;;;;;;13.47;100.00;99543.81;5006779;28;20037;-79
2022/10/27 07:04:31;;;;;;;7.03;1.38;;;;;;;13.50;100.00;99542.53;4989139;28;20079;-79
2022/10/27 07:06:56;;;;;;;4.65;1.40;;;;;;;13.50;100.00;99545.25;5020707;28;20068;-79
2022/10/27 07:09:22;;;;;;;7.55;1.45;;;;;;;13.49;100.00;99533.59;5021617;28;20501;-80
2022/10/27 07:11:48;;;;;;;6.00;2.10;;;;;;;13.61;100.00;99547.19;5024729;28;20033;-79
2022/10/27 07:14:13;;;;;;;5.57;1.45;;;;;;;13.66;100.00;99543.81;5023869;28;20029;-78
2022/10/27 07:16:41;;;;;;;6.70;3.88;;;;;;;13.76;100.00;99558.44;5019746;28;20040;-80
2022/10/27 07:19:07;;;;;;;5.03;1.77;;;;;;;13.75;100.00;99545.16;5008461;28;20037;-78
2022/10/27 07:21:32;;;;;;;4.80;1.23;;;;;;;13.79;100.00;99559.88;5003312;28;20384;-81
2022/10/27 07:23:58;;;;;;;5.57;2.53;;;;;;;13.80;100.00;99561.50;4992861;28;20087;-78
2022/10/27 07:26:24;;;;;;;2.97;1.77;;;;;;;13.84;100.00;99566.25;5009964;28;20037;-79
2022/10/27 07:28:49;;;;;;;4.85;2.33;;;;;;;13.83;100.00;99559.16;5022928;28;20399;-80
2022/10/27 07:31:15;;;;;;;14.43;7.15;;;;;;;13.83;100.00;99561.06;4988602;28;20085;-80
2022/10/27 07:33:40;;;;;;;10.43;4.88;;;;;;;13.82;100.00;99557.53;4991682;28;20025;-80
2022/10/27 07:36:06;;;;;;;12.25;6.80;;;;;;;13.86;100.00;99568.69;4992302;28;20033;-81
2022/10/27 07:38:34;;;;;;;10.80;6.88;;;;;;;13.80;100.00;99564.22;5008295;28;20064;-79
2022/10/27 07:41:00;;;;;;;9.90;5.28;;;;;;;13.73;100.00;99541.84;4994728;28;20021;-80
2022/10/27 07:43:25;;;;;;;3.63;2.30;;;;;;;13.90;100.00;99574.50;5004250;28;20083;-81
2022/10/27 07:45:51;;;;;;;5.38;3.72;;;;;;;13.83;100.00;99567.28;5012766;28;20072;-80
2022/10/27 07:48:16;;;;;;;5.45;3.60;;;;;;;13.86;100.00;99579.50;5014595;28;20053;-78
2022/10/27 07:50:43;;;;;;;2.30;1.50;;;;;;;13.90;100.00;99582.59;4987320;28;20390;-79
2022/10/27 07:53:09;;;;;;;4.63;2.33;;;;;;;13.87;100.00;99574.97;5016956;28;20061;-79
2022/10/27 07:55:35;;;;;;;2.80;1.30;;;;;;;13.90;100.00;99574.50;5002634;28;20045;-78
2022/10/27 07:58:06;;;;;;;1.65;1.10;;;;;;;13.90;100.00;99567.22;4990153;28;20045;-79
2022/10/27 08:00:34;;;;;;;3.92;1.65;;;;;;;14.02;100.00;99578.88;5023134;28;20057;-81
2022/10/27 08:03:04;;;;;;;3.47;1.63;;;;;;;14.10;100.00;99572.34;5005444;28;20037;-79
2022/10/27 08:05:32;;;;;;;4.22;2.10;;;;;;;14.16;100.00;99584.16;5023565;28;20029;-80
2022/10/27 08:07:59;;;;;;;3.05;1.90;;;;;;;14.26;100.00;99593.38;5016751;28;20678;-80
2022/10/27 08:10:25;;;;;;;2.45;1.45;;;;;;;14.32;100.00;99604.34;5019433;28;20033;-79
2022/10/27 08:12:51;;;;;;;2.38;1.25;;;;;;;14.37;100.00;99583.66;5007733;28;20029;-80
2022/10/27 08:15:17;;;;;;;3.92;1.92;;;;;;;14.64;100.00;99596.84;5020458;28;20038;-81
2022/10/27 08:17:42;;;;;;;3.92;2.17;;;;;;;14.81;100.00;99591.56;4992659;28;20036;-79
2022/10/27 08:20:09;;;;;;;1.35;1.13;;;;;;;14.99;100.00;99594.19;4993641;28;20033;-79
2022/10/27 08:22:35;;;;;;;3.50;1.40;;;;;;;15.10;100.00;99596.09;4989189;28;20041;-79
2022/10/27 08:25:01;;;;;;;4.53;1.52;;;;;;;15.18;100.00;99603.03;5010534;28;20044;-80
2022/10/27 08:27:26;;;;;;;2.72;0.80;;;;;;;15.16;100.00;99610.56;5005085;28;20476;-79
2022/10/27 08:29:52;;;;;;;0.98;0.70;;;;;;;15.18;100.00;99619.28;5026635;28;20029;-79
2022/10/27 08:32:18;;;;;;;0.40;0.40;;;;;;;15.06;100.00;99594.09;4987947;28;20041;-80
2022/10/27 08:34:43;;;;;;;3.08;0.70;;;;;;;15.12;100.00;99617.53;5025031;28;20033;-80
2022/10/27 08:37:09;;;;;;;1.83;0.70;;;;;;;15.11;100.00;99623.97;5029420;28;20420;-79
2022/10/27 08:39:34;;;;;;;2.58;0.88;;;;;;;15.18;100.00;99611.16;5016362;28;20480;-85
2022/10/27 08:42:13;;;;;;;1.77;0.73;;;;;;;15.35;100.00;99604.00;5029169;28;20033;-84
2022/10/27 08:44:45;;;;;;;3.63;0.82;;;;;;;15.49;100.00;99618.13;4999367;28;20471;-84
2022/10/27 08:47:18;;;;;;;2.17;1.07;;;;;;;15.48;100.00;99608.38;4996605;28;20033;-84
2022/10/27 08:49:50;;;;;;;1.38;0.70;;;;;;;15.23;100.00;99605.88;4993272;28;20081;-84
2022/10/27 08:52:26;;;;;;;2.92;0.90;;;;;;;15.04;100.00;99593.50;5014867;28;20033;-85
2022/10/27 08:54:57;;;;;;;4.85;1.52;;;;;;;15.25;100.00;99611.88;4996722;28;20045;-85
2022/10/27 08:57:25;;;;;;;1.63;0.70;;;;;;;15.17;100.00;99596.81;5030821;28;20033;-85
2022/10/27 08:59:52;;;;;;;3.53;1.00;;;;;;;15.44;100.00;99600.94;5016407;28;20124;-86
2022/10/27 09:02:44;;;;;;;1.60;0.70;;;;;;;15.62;100.00;99595.38;4997637;28;20443;-85
2022/10/27 09:05:29;;;;;;;3.33;1.30;;;;;;;16.31;100.00;99619.06;5028576;28;20045;-84
2022/10/27 09:08:32;;;;;;;4.25;1.00;;;;;;;16.56;100.00;99616.84;5027531;28;20077;-85
2022/10/27 09:11:19;;;;;;;3.03;1.10;;;;;;;16.66;100.00;99613.50;5019832;28;20037;-85
2022/10/27 09:13:55;;;;;;;2.15;0.93;;;;;;;16.97;100.00;99604.03;5016555;28;20036;-85
2022/10/27 09:16:33;;;;;;;2.67;0.75;;;;;;;16.81;100.00;99596.69;5030909;28;20037;-85
2022/10/27 09:18:59;;;;;;;2.97;1.23;;;;;;;17.01;100.00;99597.00;5006976;28;20479;-84
2022/10/27 09:21:26;;;;;;;4.65;1.25;;;;;;;17.18;100.00;99615.22;5031716;28;20033;-86
2022/10/27 09:24:02;;;;;;;3.83;1.10;;;;;;;16.71;100.00;99608.97;4998320;28;20171;-85
2022/10/27 09:26:31;;;;;;;8.07;1.55;;;;;;;16.42;100.00;99616.31;5025626;28;20049;-85
2022/10/27 09:28:59;;;;;;;2.42;0.73;;;;;;;16.54;100.00;99637.97;5013691;28;20021;-85
2022/10/27 09:31:41;;;;;;;4.10;0.70;;;;;;;16.76;100.00;99637.28;5012022;28;20034;-85
2022/10/27 09:34:18;;;;;;;2.90;1.30;;;;;;;17.01;100.00;99642.38;5055578;28;20039;-85
2022/10/27 09:36:44;;;;;;;2.83;1.10;;;;;;;17.11;100.00;99642.53;5002407;28;20407;-85
2022/10/27 09:39:09;;;;;;;4.53;1.30;;;;;;;17.06;100.00;99637.84;5012981;28;20088;-85
2022/10/27 09:41:35;;;;;;;3.55;1.00;;;;;;;17.23;100.00;99634.34;5026681;28;20029;-84
2022/10/27 09:44:03;;;;;;;5.93;1.30;;;;;;;17.36;100.00;99647.59;5012514;28;20037;-84
2022/10/27 09:46:29;;;;;;;4.60;1.10;;;;;;;17.32;100.00;99647.25;5026935;28;20086;-84
2022/10/27 09:48:57;;;;;;;5.07;1.30;;;;;;;17.00;100.00;99613.56;5030002;28;20124;-85
2022/10/27 09:51:41;;;;;;;5.03;1.50;;;;;;;17.27;100.00;99646.34;5015581;28;20022;-86
2022/10/27 09:54:38;;;;;;;5.32;1.30;;;;;;;17.18;100.00;99654.06;5019950;28;20030;-85
2022/10/27 09:57:12;;;;;;;3.10;1.00;;;;;;;17.12;100.00;99653.19;5008874;28;20124;-85
2022/10/27 09:59:38;;;;;;;4.70;1.38;;;;;;;17.14;100.00;99653.72;5011213;28;20033;-84
2022/10/27 10:02:17;;;;;;;4.88;1.42;;;;;;;17.20;100.00;99645.66;5025728;28;20082;-86
2022/10/27 10:04:46;;;;;;;3.67;1.10;;;;;;;17.21;100.00;99642.72;5006709;28;20183;-85
2022/10/27 10:07:27;;;;;;;3.28;1.25;;;;;;;17.31;100.00;99652.94;5006594;28;20118;-84
2022/10/27 10:10:03;;;;;;;7.55;1.92;;;;;;;17.39;100.00;99649.81;5023344;28;20037;-81
2022/10/27 10:12:29;;;;;;;1.90;0.85;;;;;;;17.52;100.00;99649.47;5016898;28;20017;-84
2022/10/27 10:15:15;;;;;;;7.10;1.08;;;;;;;17.69;97.64;99644.00;5009997;28;20382;-80
2022/10/27 10:17:42;;;;;;;2.53;1.00;;;;;;;18.15;93.78;99657.41;5026734;28;20576;-82
2022/10/27 10:20:32;;;;;;;2.45;1.42;;;;;;;18.97;87.21;99653.72;5041819;28;20044;-82
2022/10/27 10:22:58;;;;;;;1.63;0.90;;;;;;;19.76;82.47;99652.19;5021366;28;20041;-85
2022/10/27 10:25:30;;;;;;;2.88;1.20;;;;;;;19.21;81.50;99656.13;5020245;28;20029;-80
2022/10/27 10:28:02;;;;;;;1.77;0.70;;;;;;;18.90;83.06;99666.75;5023706;28;20467;-81
2022/10/27 10:30:34;;;;;;;3.50;0.90;;;;;;;18.80;83.52;99672.09;5022850;28;20033;-79
2022/10/27 10:33:00;;;;;;;4.03;1.42;;;;;;;18.93;83.61;99657.25;5006401;28;20044;-81
2022/10/27 10:35:46;;;;;;;4.15;1.20;;;;;;;18.95;83.08;99658.63;4987395;28;21483;-86
2022/10/27 10:38:34;;;;;;;8.02;1.30;;;;;;;18.73;83.87;99658.63;5046907;28;20025;-83
2022/10/27 10:41:10;;;;;;;5.68;1.40;;;;;;;18.56;85.05;99652.47;5024695;28;20100;-80
2022/10/27 10:43:37;;;;;;;3.47;0.90;;;;;;;18.40;86.80;99644.13;5022884;28;20038;-83
2022/10/27 10:46:02;;;;;;;3.60;1.20;;;;;;;18.26;86.23;99642.88;5022936;28;20025;-85
2022/10/27 10:48:46;;;;;;;3.30;1.02;;;;;;;18.14;87.06;99644.91;5019509;28;20022;-80
2022/10/27 10:51:12;;;;;;;4.32;1.70;;;;;;;18.12;87.44;99647.03;5043980;28;20451;-80
2022/10/27 10:53:41;;;;;;;5.82;1.55;;;;;;;18.18;87.38;99651.50;5011621;28;20032;-80
2022/10/27 10:56:23;;;;;;;6.78;1.30;;;;;;;18.40;86.99;99654.19;5008779;28;20025;-80
2022/10/27 10:58:56;;;;;;;7.63;2.20;;;;;;;19.08;84.23;99657.41;5009574;28;20033;-83
2022/10/27 11:01:21;;;;;;;6.50;2.65;;;;;;;19.42;80.84;99649.75;5007517;28;20033;-80
2022/10/27 11:03:51;;;;;;;9.25;3.70;;;;;;;19.43;81.14;99659.59;5025602;28;20040;-83
2022/10/27 11:06:19;;;;;;;7.80;1.80;;;;;;;20.04;78.29;99664.63;5023075;28;20040;-82
2022/10/27 11:08:54;;;;;;;6.03;2.25;;;;;;;20.60;75.39;99664.88;5011712;28;20040;-81
2022/10/27 11:11:22;;;;;;;6.75;1.70;;;;;;;21.16;71.51;99660.63;5017709;28;20043;-82
2022/10/27 11:13:54;;;;;;;6.25;1.25;;;;;;;20.88;71.23;99648.28;5054453;28;20506;-84
2022/10/27 11:16:21;;;;;;;5.40;1.65;;;;;;;20.50;72.80;99653.91;5001710;28;20058;-81
2022/10/27 11:19:01;;;;;;;6.97;1.70;;;;;;;20.60;73.52;99656.69;5006671;28;20041;-84
2022/10/27 11:22:04;;;;;;;6.15;2.10;;;;;;;20.50;73.48;99653.91;5025887;28;20032;-80
2022/10/27 11:24:54;;;;;;;8.27;2.15;;;;;;;21.21;71.12;99661.44;4991238;28;20029;-81
2022/10/27 11:27:27;;;;;;;2.50;1.60;;;;;;;21.60;68.96;99649.97;5022930;28;20042;-82
2022/10/27 11:30:03;;;;;;;5.20;1.50;;;;;;;21.48;69.17;99649.41;4994424;28;20090;-83
2022/10/27 11:32:35;;;;;;;4.13;1.88;;;;;;;21.28;70.25;99647.50;4990302;28;20064;-80